Time;durP1;ratioP1;P1;durP2;ratioP2;P2;SDS_P1;SDS_P2;PMS_P1;PMS_P2;Temp;Humidity;BMP_temperature;BMP_pressure;BME280_temperature;BME280_humidity;BME280_pressure;Samples;Min_cycle;Max_cycle;Signal;HPM_P1;HPM_P2
2022/09/20 00:02:22;;;;;;;2.47;1.30;;;10.90;21.80;;;;;;5092424;27;34331;-74
2022/09/20 00:04:48;;;;;;;2.85;1.10;;;10.90;22.20;;;;;;5127475;27;34144;-74
2022/09/20 00:07:14;;;;;;;5.45;1.35;;;11.00;22.20;;;;;;5109647;27;34269;-75
2022/09/20 00:09:40;;;;;;;1.92;1.02;;;11.00;22.00;;;;;;5092344;27;34232;-74
2022/09/20 00:12:07;;;;;;;1.60;1.15;;;11.00;22.00;;;;;;5109661;27;34178;-74
2022/09/20 00:14:33;;;;;;;3.47;1.30;;;11.00;21.80;;;;;;5109073;27;34101;-74
2022/09/20 00:16:59;;;;;;;4.88;1.35;;;11.00;22.50;;;;;;5091361;27;36218;-75
2022/09/20 00:19:24;;;;;;;1.27;1.10;;;11.10;22.20;;;;;;5093027;27;34385;-74
2022/09/20 00:21:50;;;;;;;1.90;1.20;;;11.10;22.30;;;;;;5109727;27;34271;-74
2022/09/20 00:24:16;;;;;;;5.18;0.95;;;11.10;22.50;;;;;;5126059;27;34305;-74
2022/09/20 00:26:42;;;;;;;2.90;1.30;;;11.10;22.10;;;;;;5126971;27;34444;-75
2022/09/20 00:29:08;;;;;;;1.30;1.13;;;11.10;22.40;;;;;;5109214;27;34127;-74
2022/09/20 00:31:35;;;;;;;2.05;1.30;;;11.10;22.30;;;;;;5126002;27;34174;-74
2022/09/20 00:36:43;;;;;;;1.65;1.10;;;11.20;22.30;;;;;;5126410;27;34203;-74
2022/09/20 00:39:13;;;;;;;1.90;1.25;;;11.20;22.70;;;;;;5127433;27;34067;-74
2022/09/20 00:41:39;;;;;;;1.73;1.23;;;11.20;22.70;;;;;;5125408;27;34158;-74
2022/09/20 00:44:35;;;;;;;4.50;1.17;;;11.20;22.00;;;;;;5108972;27;34429;-74
2022/09/20 00:47:02;;;;;;;1.10;1.10;;;11.20;23.10;;;;;;5108820;27;36450;-74
2022/09/20 00:49:29;;;;;;;3.38;1.20;;;11.20;21.80;;;;;;5107756;27;34376;-74
2022/09/20 00:51:59;;;;;;;4.80;1.17;;;11.20;21.90;;;;;;5091909;27;34111;-74
2022/09/20 00:54:27;;;;;;;7.35;1.20;;;11.20;22.10;;;;;;5108756;27;34385;-75
2022/09/20 00:56:53;;;;;;;2.47;1.13;;;11.30;21.90;;;;;;5126416;27;34179;-74
2022/09/20 00:59:25;;;;;;;2.38;1.33;;;11.20;22.60;;;;;;5126686;27;34097;-74
2022/09/20 01:01:58;;;;;;;1.75;1.20;;;11.30;22.70;;;;;;5126662;27;34558;-74
2022/09/20 01:04:27;;;;;;;2.05;1.00;;;11.30;22.90;;;;;;5127118;27;34142;-74
2022/09/20 01:06:56;;;;;;;4.18;1.15;;;11.30;22.40;;;;;;5126389;27;34110;-74
2022/09/20 01:09:22;;;;;;;1.67;0.85;;;11.30;22.20;;;;;;5091497;27;34176;-74
2022/09/20 01:11:50;;;;;;;1.08;0.75;;;11.30;22.20;;;;;;5107719;27;34084;-74
2022/09/20 01:14:21;;;;;;;1.08;0.88;;;11.40;22.20;;;;;;5126626;27;34339;-75
2022/09/20 01:16:47;;;;;;;1.00;0.98;;;11.40;22.30;;;;;;5107335;27;35954;-74
2022/09/20 01:19:35;;;;;;;1.85;0.90;;;11.40;22.30;;;;;;5126555;27;34028;-75
2022/09/20 01:22:06;;;;;;;4.40;0.75;;;11.40;22.30;;;;;;5076373;27;34204;-74
2022/09/20 01:24:45;;;;;;;3.00;1.50;;;11.40;22.40;;;;;;5126766;27;34267;-75
2022/09/20 01:27:37;;;;;;;2.38;0.88;;;11.50;22.20;;;;;;5126276;27;34102;-75
2022/09/20 01:30:07;;;;;;;4.18;1.00;;;11.50;22.70;;;;;;5092796;27;34350;-74
2022/09/20 01:32:55;;;;;;;5.63;1.00;;;11.50;22.40;;;;;;5107704;27;34300;-74
2022/09/20 01:35:24;;;;;;;4.18;0.88;;;11.50;22.80;;;;;;5093246;27;34139;-75
2022/09/20 01:38:18;;;;;;;2.05;0.93;;;11.60;22.30;;;;;;5107509;27;35923;-74
2022/09/20 01:41:00;;;;;;;1.73;1.20;;;11.60;22.60;;;;;;5107227;27;34100;-74
2022/09/20 01:43:38;;;;;;;6.28;1.10;;;11.60;22.00;;;;;;5091136;27;34214;-74
2022/09/20 01:46:27;;;;;;;1.73;0.98;;;11.60;22.20;;;;;;5108015;27;34228;-75
2022/09/20 01:49:04;;;;;;;1.98;0.93;;;11.60;22.00;;;;;;5107140;27;35996;-74
2022/09/20 01:52:10;;;;;;;4.43;1.13;;;11.60;22.20;;;;;;5092211;27;34242;-74
2022/09/20 01:55:11;;;;;;;4.03;1.10;;;11.70;23.40;;;;;;5082293;27;34109;-75
2022/09/20 01:58:01;;;;;;;2.53;1.17;;;11.70;23.40;;;;;;5094170;27;34173;-78
2022/09/20 02:00:33;;;;;;;2.13;0.93;;;11.70;22.70;;;;;;5107805;27;35992;-74
2022/09/20 02:03:23;;;;;;;2.00;1.08;;;11.70;22.10;;;;;;5091671;27;34121;-74
2022/09/20 02:06:22;;;;;;;1.08;0.90;;;11.70;22.30;;;;;;5106768;27;34197;-74
2022/09/20 02:09:15;;;;;;;1.35;0.90;;;11.70;23.20;;;;;;5125632;27;34062;-74
2022/09/20 02:11:58;;;;;;;3.38;0.90;;;11.70;23.00;;;;;;5106805;27;35803;-74
2022/09/20 02:14:50;;;;;;;2.22;1.00;;;11.70;22.60;;;;;;5106948;27;34195;-74
2022/09/20 02:17:37;;;;;;;2.78;1.00;;;11.70;23.00;;;;;;5094177;27;34041;-74
2022/09/20 02:20:34;;;;;;;1.38;1.00;;;11.70;22.60;;;;;;5107081;27;34121;-75
2022/09/20 02:23:40;;;;;;;1.88;0.85;;;11.70;23.10;;;;;;5107046;27;35685;-74
2022/09/20 02:26:32;;;;;;;2.60;1.15;;;11.70;23.90;;;;;;5099285;27;34103;-74
2022/09/20 02:29:16;;;;;;;3.95;1.05;;;11.70;23.00;;;;;;5106878;27;34335;-74
2022/09/20 02:32:17;;;;;;;1.90;0.80;;;11.70;22.90;;;;;;5124964;27;34121;-74
2022/09/20 02:35:04;;;;;;;3.45;1.20;;;11.60;23.50;;;;;;5094310;27;35672;-74
2022/09/20 02:37:54;;;;;;;2.42;1.00;;;11.70;23.30;;;;;;5106994;27;34119;-74
2022/09/20 02:40:37;;;;;;;1.85;1.02;;;11.60;23.10;;;;;;5106531;27;34452;-74
2022/09/20 02:43:22;;;;;;;2.55;1.17;;;11.70;23.10;;;;;;5090912;27;34536;-74
2022/09/20 02:46:00;;;;;;;3.05;1.20;;;11.70;23.30;;;;;;5124498;27;34043;-74
2022/09/20 02:48:37;;;;;;;3.40;1.10;;;11.70;22.90;;;;;;5106843;27;34288;-74
2022/09/20 02:51:20;;;;;;;1.45;1.20;;;11.60;22.70;;;;;;5125054;27;34228;-74
2022/09/20 02:54:15;;;;;;;4.00;1.20;;;11.70;22.40;;;;;;5106955;27;34257;-74
2022/09/20 02:57:00;;;;;;;3.78;1.15;;;11.70;23.10;;;;;;5078223;27;35677;-74
2022/09/20 02:59:52;;;;;;;1.95;1.00;;;11.70;23.00;;;;;;5124998;27;34346;-74
2022/09/20 03:02:50;;;;;;;2.13;0.95;;;11.70;23.40;;;;;;5106447;27;34112;-74
2022/09/20 03:05:24;;;;;;;1.67;0.93;;;11.70;23.80;;;;;;5106617;27;34209;-74
2022/09/20 03:08:13;;;;;;;5.18;1.13;;;11.70;22.60;;;;;;5124240;27;35227;-74
2022/09/20 03:11:09;;;;;;;3.80;1.08;;;11.60;23.20;;;;;;5106020;27;34308;-74
2022/09/20 03:14:04;;;;;;;1.20;0.93;;;11.60;23.70;;;;;;5109182;27;34122;-74
2022/09/20 03:16:50;;;;;;;1.35;1.23;;;11.60;23.10;;;;;;5109995;27;34045;-74
2022/09/20 03:19:38;;;;;;;1.15;1.05;;;11.60;23.00;;;;;;5109837;27;35649;-74
2022/09/20 03:22:27;;;;;;;2.35;1.00;;;11.70;23.20;;;;;;5094996;27;34313;-74
2022/09/20 03:25:06;;;;;;;2.30;1.27;;;11.60;23.10;;;;;;5092329;27;34157;-74
2022/09/20 03:27:46;;;;;;;1.02;0.93;;;11.70;22.60;;;;;;5128367;27;34171;-74
2022/09/20 03:30:43;;;;;;;1.08;1.05;;;11.70;22.80;;;;;;5109419;27;35790;-75
2022/09/20 03:33:24;;;;;;;2.22;1.13;;;11.70;23.10;;;;;;5127555;27;34263;-75
2022/09/20 03:36:29;;;;;;;4.10;1.35;;;11.70;23.20;;;;;;5110018;27;34493;-75
2022/09/20 03:39:26;;;;;;;4.30;1.27;;;11.70;23.60;;;;;;5101762;27;34068;-75
2022/09/20 03:42:15;;;;;;;3.40;1.25;;;11.70;23.10;;;;;;5109308;27;36579;-75
2022/09/20 03:44:57;;;;;;;1.40;1.02;;;11.60;23.10;;;;;;5092716;27;34032;-75
2022/09/20 03:47:51;;;;;;;2.70;1.15;;;11.70;22.90;;;;;;5110892;27;34185;-75
2022/09/20 03:50:48;;;;;;;3.45;1.08;;;11.60;23.40;;;;;;5092659;27;34543;-75
2022/09/20 03:53:42;;;;;;;1.95;1.23;;;11.70;23.50;;;;;;5096244;27;35666;-75
2022/09/20 03:56:35;;;;;;;1.80;1.15;;;11.60;23.10;;;;;;5127582;27;34303;-75
2022/09/20 03:59:32;;;;;;;2.45;1.20;;;11.60;22.70;;;;;;5112527;27;34183;-75
2022/09/20 04:02:17;;;;;;;1.83;1.15;;;11.60;22.80;;;;;;5127346;27;34190;-75
2022/09/20 04:04:56;;;;;;;1.52;1.20;;;11.60;22.70;;;;;;5109119;27;34575;-75
2022/09/20 04:07:56;;;;;;;6.00;1.30;;;11.60;22.70;;;;;;5093835;27;34254;-75
2022/09/20 04:10:53;;;;;;;2.08;1.02;;;11.60;22.80;;;;;;5127565;27;34007;-75
2022/09/20 04:13:37;;;;;;;1.83;1.00;;;11.60;22.90;;;;;;5127306;27;34303;-75
2022/09/20 04:16:38;;;;;;;2.53;1.10;;;11.60;23.20;;;;;;5126765;27;34889;-75
2022/09/20 04:19:22;;;;;;;2.45;1.00;;;11.60;23.70;;;;;;5114564;27;34173;-75
2022/09/20 04:21:55;;;;;;;3.17;1.38;;;11.60;23.00;;;;;;5108960;27;34172;-74
2022/09/20 04:24:41;;;;;;;3.05;1.20;;;11.60;22.70;;;;;;5092201;27;34053;-75
2022/09/20 04:27:28;;;;;;;2.47;1.40;;;11.60;22.40;;;;;;5127213;27;34198;-75
2022/09/20 04:30:08;;;;;;;1.48;1.20;;;11.60;22.60;;;;;;5092676;27;34058;-75
2022/09/20 04:32:42;;;;;;;2.47;1.17;;;11.60;22.00;;;;;;5092589;27;34535;-75
2022/09/20 04:38:12;;;;;;;2.40;1.10;;;11.50;22.60;;;;;;5125932;27;34181;-75
2022/09/20 04:41:10;;;;;;;1.75;1.25;;;11.60;22.80;;;;;;5126672;27;34103;-75
2022/09/20 04:44:10;;;;;;;3.33;1.27;;;11.50;23.50;;;;;;5108613;27;34131;-75
2022/09/20 04:47:10;;;;;;;2.80;1.38;;;11.60;23.30;;;;;;5108474;27;34428;-75
2022/09/20 04:50:11;;;;;;;4.93;1.38;;;11.60;23.40;;;;;;5093917;27;35585;-75
2022/09/20 04:53:07;;;;;;;1.40;0.98;;;11.60;23.50;;;;;;5108206;27;34093;-75
2022/09/20 04:55:48;;;;;;;4.80;1.33;;;11.60;23.20;;;;;;5097643;27;34442;-74
2022/09/20 04:58:37;;;;;;;3.97;1.33;;;11.60;23.00;;;;;;5108866;27;34171;-75
2022/09/20 05:01:31;;;;;;;1.73;1.20;;;11.60;23.70;;;;;;5094352;27;35644;-75
2022/09/20 05:04:27;;;;;;;4.50;1.25;;;11.50;23.90;;;;;;5108310;27;34176;-75
2022/09/20 05:07:17;;;;;;;1.55;1.40;;;11.60;24.20;;;;;;5107828;27;34446;-75
2022/09/20 05:10:14;;;;;;;2.28;1.05;;;11.60;23.10;;;;;;5093407;27;34048;-75
2022/09/20 05:13:10;;;;;;;2.97;1.10;;;11.60;23.80;;;;;;5107239;27;35692;-75
2022/09/20 05:15:55;;;;;;;2.13;1.30;;;11.60;27.50;;;;;;5094810;27;34302;-75
2022/09/20 05:18:49;;;;;;;1.25;1.15;;;11.60;23.30;;;;;;5092496;27;34232;-75
2022/09/20 05:21:47;;;;;;;2.88;1.73;;;11.60;24.00;;;;;;5095511;27;34181;-75
2022/09/20 05:24:43;;;;;;;1.73;1.20;;;11.60;23.90;;;;;;5093010;27;36100;-74
2022/09/20 05:27:32;;;;;;;2.75;1.50;;;11.60;23.90;;;;;;5107675;27;34420;-75
2022/09/20 05:30:07;;;;;;;4.22;1.67;;;11.60;23.60;;;;;;5107751;27;34382;-75
2022/09/20 05:32:47;;;;;;;2.58;1.45;;;11.60;23.70;;;;;;5091559;27;34594;-75
2022/09/20 05:35:31;;;;;;;2.92;1.60;;;11.60;23.90;;;;;;5108375;27;34930;-75
2022/09/20 05:38:20;;;;;;;1.77;1.58;;;11.60;23.70;;;;;;5107667;27;34226;-76
2022/09/20 05:41:17;;;;;;;3.15;1.40;;;11.60;23.80;;;;;;5107745;27;34269;-76
2022/09/20 05:44:07;;;;;;;3.22;1.50;;;11.60;23.90;;;;;;5107429;27;34016;-75
2022/09/20 05:46:54;;;;;;;3.22;1.35;;;11.70;23.90;;;;;;5107182;27;35613;-76
2022/09/20 05:49:39;;;;;;;3.90;1.42;;;11.70;23.40;;;;;;5107916;27;34009;-76
2022/09/20 05:52:32;;;;;;;3.63;1.77;;;11.70;24.00;;;;;;5107678;27;34149;-76
2022/09/20 05:55:33;;;;;;;2.20;1.58;;;11.70;23.40;;;;;;5107599;27;34594;-75
2022/09/20 05:58:31;;;;;;;1.98;1.77;;;11.70;23.60;;;;;;5092934;27;36796;-75
2022/09/20 06:01:09;;;;;;;5.05;1.90;;;11.70;23.70;;;;;;5107490;27;34194;-76
2022/09/20 06:03:44;;;;;;;2.47;1.80;;;11.70;23.10;;;;;;5126047;27;34110;-75
2022/09/20 06:06:32;;;;;;;1.55;1.45;;;11.80;23.30;;;;;;5107341;27;34524;-76
2022/09/20 06:09:28;;;;;;;1.73;1.63;;;11.80;23.40;;;;;;5106990;27;36761;-75
2022/09/20 06:12:20;;;;;;;5.18;1.92;;;11.80;24.50;;;;;;5124894;27;34106;-76
2022/09/20 06:15:10;;;;;;;3.83;2.13;;;11.90;24.10;;;;;;5106929;27;34137;-76
2022/09/20 06:17:48;;;;;;;3.05;2.15;;;11.90;24.00;;;;;;5107105;27;34127;-76
2022/09/20 06:20:31;;;;;;;3.13;2.42;;;12.00;23.10;;;;;;5086319;28;36053;-76
2022/09/20 06:22:59;;;;;;;4.60;2.55;;;12.00;23.00;;;;;;5103676;28;34222;-75
2022/09/20 06:25:36;;;;;;;4.43;2.53;;;12.10;22.90;;;;;;5089002;27;34101;-75
2022/09/20 06:28:17;;;;;;;6.93;2.33;;;12.10;23.10;;;;;;5108294;27;34156;-76
2022/09/20 06:30:47;;;;;;;5.57;2.50;;;12.10;23.10;;;;;;5115300;27;36567;-75
2022/09/20 06:33:16;;;;;;;7.05;2.70;;;12.20;23.20;;;;;;5089830;27;34141;-75
2022/09/20 06:41:25;;;;;;;4.63;2.60;;;12.30;23.00;;;;;;5106588;27;34318;-75
2022/09/20 06:42:09;;;;;;;3.45;2.47;;;12.40;23.30;;;;;;5110902;27;35966;-75
2022/09/20 06:44:39;;;;;;;5.22;2.60;;;12.50;22.00;;;;;;5124669;27;34352;-75
2022/09/20 06:47:08;;;;;;;4.22;2.53;;;12.60;22.00;;;;;;5090649;27;34155;-75
2022/09/20 06:49:35;;;;;;;3.58;2.35;;;12.70;22.70;;;;;;5106872;27;34258;-75
2022/09/20 06:52:06;;;;;;;4.82;2.90;;;12.80;22.30;;;;;;5125108;27;34126;-75
2022/09/20 06:54:32;;;;;;;4.55;3.03;;;12.80;22.80;;;;;;5106897;27;34045;-76
2022/09/20 06:57:02;;;;;;;5.03;2.70;;;12.90;22.50;;;;;;5106543;27;34067;-76
2022/09/20 06:59:29;;;;;;;4.72;2.63;;;12.90;22.70;;;;;;5089735;27;34051;-76
2022/09/20 07:01:55;;;;;;;6.80;2.28;;;13.00;21.90;;;;;;5106503;27;35338;-75
2022/09/20 07:04:22;;;;;;;9.45;2.50;;;13.00;21.90;;;;;;5107268;27;34091;-75
2022/09/20 07:06:48;;;;;;;6.43;3.20;;;13.10;21.70;;;;;;5124269;27;34249;-75
2022/09/20 07:09:14;;;;;;;6.45;3.00;;;13.20;22.10;;;;;;5089415;27;34049;-75
2022/09/20 07:11:40;;;;;;;6.05;2.63;;;13.30;22.00;;;;;;5088771;27;35791;-75
2022/09/20 07:14:06;;;;;;;4.65;2.40;;;13.30;22.00;;;;;;5106543;27;34190;-75
2022/09/20 07:16:34;;;;;;;6.75;2.50;;;13.40;22.00;;;;;;5106204;27;34276;-75
2022/09/20 07:18:59;;;;;;;4.07;2.72;;;13.50;22.20;;;;;;5106690;27;34144;-75
2022/09/20 07:21:25;;;;;;;3.17;2.47;;;13.60;22.30;;;;;;5088984;27;35675;-75
2022/09/20 07:23:52;;;;;;;5.65;2.60;;;13.70;21.70;;;;;;5106289;27;34176;-75
2022/09/20 07:26:25;;;;;;;3.58;2.45;;;13.80;21.40;;;;;;5106281;27;34029;-76
2022/09/20 07:28:52;;;;;;;8.25;2.85;;;14.00;21.60;;;;;;5124770;27;34246;-75
2022/09/20 07:31:21;;;;;;;4.63;2.38;;;14.00;21.30;;;;;;5072393;27;35717;-76
2022/09/20 07:33:48;;;;;;;6.72;2.42;;;14.10;21.40;;;;;;5106461;27;34134;-76
2022/09/20 07:36:15;;;;;;;4.43;2.15;;;14.20;20.80;;;;;;5089720;27;34398;-76
2022/09/20 07:38:42;;;;;;;5.00;2.30;;;14.20;20.60;;;;;;5106834;27;34082;-76
2022/09/20 07:41:09;;;;;;;3.83;2.08;;;14.30;20.90;;;;;;5106168;27;35822;-77
2022/09/20 07:43:35;;;;;;;3.67;2.15;;;14.30;20.90;;;;;;5106567;27;34136;-76
2022/09/20 07:46:01;;;;;;;4.28;2.30;;;14.30;20.60;;;;;;5107943;27;34187;-76
2022/09/20 07:48:31;;;;;;;7.07;1.95;;;14.40;20.60;;;;;;5107768;27;34134;-77
2022/09/20 07:51:03;;;;;;;5.15;1.80;;;14.40;20.30;;;;;;5105929;27;36612;-77
2022/09/20 07:53:29;;;;;;;6.05;1.60;;;14.40;20.20;;;;;;5072761;27;34389;-76
2022/09/20 07:55:58;;;;;;;4.75;2.08;;;14.40;20.70;;;;;;5123621;27;34400;-76
2022/09/20 07:58:24;;;;;;;2.88;1.88;;;14.50;20.40;;;;;;5106810;27;34097;-76
2022/09/20 08:00:59;;;;;;;3.15;2.20;;;14.50;20.10;;;;;;5127094;27;34466;-76
2022/09/20 08:03:25;;;;;;;5.43;1.73;;;14.50;20.00;;;;;;5109632;27;34104;-76
2022/09/20 08:05:59;;;;;;;4.35;2.05;;;14.50;20.30;;;;;;5127682;27;34493;-77
2022/09/20 08:08:30;;;;;;;1.77;1.63;;;14.60;19.90;;;;;;5127293;27;34262;-75
2022/09/20 08:11:16;;;;;;;6.30;2.03;;;14.70;20.10;;;;;;5108478;27;35678;-76
2022/09/20 08:13:46;;;;;;;3.55;1.77;;;14.80;20.20;;;;;;5109598;27;34138;-76
2022/09/20 08:16:13;;;;;;;5.65;1.98;;;15.00;20.00;;;;;;5088638;28;34498;-76
2022/09/20 08:18:47;;;;;;;1.80;1.40;;;15.10;19.50;;;;;;5126667;27;34202;-76
2022/09/20 08:21:13;;;;;;;1.17;1.08;;;15.30;19.80;;;;;;5109057;27;35962;-76
2022/09/20 08:23:41;;;;;;;4.57;1.48;;;15.50;19.40;;;;;;5110032;27;34283;-77
2022/09/20 08:26:11;;;;;;;0.90;0.80;;;15.70;19.30;;;;;;5108893;27;34158;-77
2022/09/20 08:28:39;;;;;;;3.80;1.00;;;15.90;18.90;;;;;;5109071;27;34304;-77
2022/09/20 08:31:09;;;;;;;4.03;0.88;;;16.00;18.30;;;;;;5109183;27;34998;-77
2022/09/20 08:33:36;;;;;;;1.27;0.80;;;16.10;18.60;;;;;;5108611;27;34049;-77
2022/09/20 08:36:04;;;;;;;0.82;0.73;;;16.20;18.50;;;;;;5110266;27;34384;-77
2022/09/20 08:38:33;;;;;;;3.08;0.88;;;16.30;18.30;;;;;;5110384;27;34219;-79
2022/09/20 08:41:09;;;;;;;3.00;0.85;;;16.50;17.70;;;;;;5126397;27;35878;-77
2022/09/20 08:43:45;;;;;;;3.40;1.00;;;16.70;17.20;;;;;;5110766;27;34048;-81
2022/09/20 08:46:16;;;;;;;1.27;1.00;;;17.00;17.60;;;;;;5112267;27;34334;-77
2022/09/20 08:48:43;;;;;;;1.55;0.90;;;17.40;17.20;;;;;;5111968;27;34531;-79
2022/09/20 08:51:14;;;;;;;1.75;0.98;;;17.60;17.30;;;;;;5128785;27;35146;-77
2022/09/20 08:53:46;;;;;;;0.93;0.70;;;17.60;16.50;;;;;;5129322;27;34162;-83
2022/09/20 08:56:13;;;;;;;1.42;0.80;;;17.70;16.90;;;;;;5132146;27;34260;-77
2022/09/20 08:58:39;;;;;;;1.30;0.70;;;17.60;17.10;;;;;;5095656;27;34398;-80
2022/09/20 09:01:06;;;;;;;2.30;0.90;;;17.60;17.10;;;;;;5110939;27;35899;-78
2022/09/20 09:03:33;;;;;;;0.98;0.80;;;17.50;17.20;;;;;;5097348;27;34232;-79
2022/09/20 09:06:00;;;;;;;1.98;0.80;;;17.50;16.80;;;;;;5095592;27;34163;-81
2022/09/20 09:08:35;;;;;;;1.42;0.90;;;17.60;16.90;;;;;;5132219;27;34122;-83
2022/09/20 09:11:08;;;;;;;1.90;0.68;;;17.70;15.80;;;;;;5110786;27;35808;-78
2022/09/20 09:13:52;;;;;;;1.15;0.80;;;17.70;16.40;;;;;;5122897;27;34292;-79
2022/09/20 09:16:20;;;;;;;0.77;0.77;;;17.60;14.50;;;;;;5083716;28;34236;-79
2022/09/20 09:18:49;;;;;;;2.30;0.90;;;17.60;16.50;;;;;;5081843;27;34613;-78
2022/09/20 09:21:19;;;;;;;1.77;0.80;;;17.60;16.50;;;;;;5088719;28;35803;-79
2022/09/20 09:23:57;;;;;;;1.13;0.70;;;17.60;15.80;;;;;;5089256;28;34233;-78
2022/09/20 09:26:24;;;;;;;2.47;0.70;;;17.50;15.50;;;;;;5090402;28;34179;-79
2022/09/20 09:29:09;;;;;;;1.98;0.70;;;17.50;15.90;;;;;;5089420;28;34855;-78
2022/09/20 09:31:37;;;;;;;1.92;0.80;;;17.40;14.40;;;;;;5088907;28;35814;-79
2022/09/20 09:34:03;;;;;;;4.88;0.77;;;17.40;16.00;;;;;;5091277;28;34338;-79
2022/09/20 09:36:29;;;;;;;1.60;0.70;;;17.30;15.80;;;;;;5105907;28;34132;-78
2022/09/20 09:39:15;;;;;;;0.63;0.63;;;17.20;16.10;;;;;;5108322;27;34390;-79
2022/09/20 09:41:42;;;;;;;1.33;0.80;;;17.10;14.00;;;;;;5105270;28;36339;-78
2022/09/20 09:44:28;;;;;;;1.73;0.77;;;17.00;15.70;;;;;;5105544;28;34353;-78
2022/09/20 09:46:57;;;;;;;1.13;0.77;;;16.80;13.40;;;;;;5073491;28;34293;-77
2022/09/20 09:49:32;;;;;;;1.50;1.02;;;16.80;15.80;;;;;;5070798;28;34208;-77
2022/09/20 09:52:25;;;;;;;1.08;1.00;;;16.70;16.90;;;;;;5105052;28;34247;-76
2022/09/20 09:54:57;;;;;;;3.90;1.30;;;16.70;16.10;;;;;;5105252;28;34343;-76
2022/09/20 09:57:54;;;;;;;1.25;0.73;;;16.80;16.50;;;;;;5106042;27;34043;-76
2022/09/20 10:00:22;;;;;;;0.80;0.80;;;16.90;16.30;;;;;;5104320;28;34641;-76
2022/09/20 10:03:09;;;;;;;2.25;1.00;;;17.00;16.60;;;;;;5104645;28;34562;-76
2022/09/20 10:06:06;;;;;;;2.13;1.00;;;17.20;17.00;;;;;;5087676;28;34156;-76
2022/09/20 10:08:51;;;;;;;0.95;0.95;;;17.50;15.80;;;;;;5114540;27;34438;-77
2022/09/20 10:11:42;;;;;;;2.03;0.80;;;17.70;14.70;;;;;;5092361;27;34357;-75
2022/09/20 10:14:38;;;;;;;1.23;0.88;;;17.70;13.10;;;;;;5106867;27;35917;-77
2022/09/20 10:17:26;;;;;;;0.65;0.65;;;17.60;13.60;;;;;;5126163;27;34083;-77
2022/09/20 10:20:06;;;;;;;2.53;0.85;;;17.50;15.80;;;;;;5109207;27;34191;-78
2022/09/20 10:22:53;;;;;;;1.00;0.90;;;17.40;15.10;;;;;;5091459;27;34189;-77
2022/09/20 10:25:39;;;;;;;1.00;0.77;;;17.20;14.70;;;;;;5125587;27;34234;-78
2022/09/20 10:28:30;;;;;;;1.13;1.00;;;17.20;14.70;;;;;;5108603;27;34041;-78
2022/09/20 10:31:11;;;;;;;2.67;1.15;;;17.00;15.20;;;;;;5103905;27;34102;-80
2022/09/20 10:34:08;;;;;;;3.33;1.35;;;16.90;16.30;;;;;;5107568;27;34426;-75
2022/09/20 10:36:58;;;;;;;3.95;1.50;;;16.80;16.70;;;;;;5089079;28;35669;-75
2022/09/20 10:39:35;;;;;;;5.10;1.63;;;16.70;17.20;;;;;;5086679;28;34153;-76
2022/09/20 10:45:29;;;;;;;5.28;1.38;;;16.50;17.80;;;;;;5122537;27;34067;-75
2022/09/20 10:48:06;;;;;;;3.15;1.58;;;16.50;18.40;;;;;;5093593;27;36166;-75
2022/09/20 10:50:51;;;;;;;2.00;1.50;;;16.40;17.50;;;;;;5091468;27;34115;-75
2022/09/20 10:53:37;;;;;;;2.58;1.63;;;16.50;17.50;;;;;;5107711;27;34295;-75
2022/09/20 10:56:28;;;;;;;3.33;1.60;;;16.50;16.90;;;;;;5125467;27;34322;-75
2022/09/20 10:59:25;;;;;;;2.90;1.73;;;16.60;17.30;;;;;;5110830;27;34509;-75
2022/09/20 11:02:22;;;;;;;2.65;1.58;;;16.60;15.20;;;;;;5107197;27;34027;-74
2022/09/20 11:05:13;;;;;;;2.13;1.70;;;16.70;16.50;;;;;;5125412;27;34043;-75
2022/09/20 11:08:07;;;;;;;3.90;1.90;;;16.80;16.70;;;;;;5108007;27;34080;-75
2022/09/20 11:10:39;;;;;;;2.58;1.48;;;17.00;15.00;;;;;;5106980;27;36431;-75
2022/09/20 11:13:24;;;;;;;3.47;1.58;;;17.20;16.10;;;;;;5106532;27;34170;-76
2022/09/20 11:15:59;;;;;;;2.22;1.65;;;17.40;15.90;;;;;;5106163;27;34144;-75
2022/09/20 11:18:49;;;;;;;4.72;1.60;;;17.70;15.60;;;;;;5106313;27;34232;-75
2022/09/20 11:21:36;;;;;;;1.98;1.20;;;17.70;14.30;;;;;;5105951;27;36366;-75
2022/09/20 11:24:26;;;;;;;1.83;1.33;;;17.80;13.10;;;;;;5090832;27;34206;-76
2022/09/20 11:26:58;;;;;;;1.25;1.20;;;17.80;12.90;;;;;;5125493;27;34480;-79
2022/09/20 11:29:34;;;;;;;1.30;1.20;;;17.90;15.30;;;;;;5106051;27;34379;-76
2022/09/20 11:32:12;;;;;;;2.72;1.27;;;18.00;15.30;;;;;;5105760;27;36426;-76
2022/09/20 11:34:54;;;;;;;2.35;1.23;;;18.10;14.50;;;;;;5110823;27;34200;-79
2022/09/20 11:37:25;;;;;;;2.05;1.27;;;18.40;12.70;;;;;;5111442;27;34222;-78
2022/09/20 11:39:58;;;;;;;2.55;1.55;;;18.60;14.70;;;;;;5111370;27;34518;-77
2022/09/20 11:42:30;;;;;;;2.85;1.33;;;18.90;14.30;;;;;;5109539;27;35505;-77
2022/09/20 11:44:56;;;;;;;1.30;1.10;;;19.10;14.10;;;;;;5109107;27;34091;-77
2022/09/20 11:47:33;;;;;;;1.70;0.95;;;19.20;14.10;;;;;;5128058;27;34434;-77
2022/09/20 11:50:31;;;;;;;1.60;1.08;;;19.30;11.60;;;;;;5110017;27;34563;-78
2022/09/20 11:53:18;;;;;;;1.83;1.13;;;19.30;10.10;;;;;;5098626;27;35525;-83
2022/09/20 11:56:06;;;;;;;1.13;1.02;;;19.20;9.60;;;;;;5094132;27;34124;-80
2022/09/20 11:58:47;;;;;;;2.10;1.10;;;19.10;9.00;;;;;;5110713;27;34191;-80
2022/09/20 12:01:24;;;;;;;1.40;1.20;;;19.10;9.90;;;;;;5128131;27;34077;-77
2022/09/20 12:03:54;;;;;;;1.60;1.20;;;19.10;12.30;;;;;;5112758;27;35573;-79
2022/09/20 12:06:36;;;;;;;1.85;1.33;;;19.20;11.80;;;;;;5093389;27;34217;-77
2022/09/20 12:09:21;;;;;;;1.33;1.23;;;19.30;9.80;;;;;;5110607;27;34236;-80
2022/09/20 12:11:47;;;;;;;2.88;1.30;;;19.40;10.70;;;;;;5112688;27;34131;-81
2022/09/20 12:14:21;;;;;;;1.58;1.20;;;19.50;12.30;;;;;;5090812;28;35941;-78
2022/09/20 12:16:48;;;;;;;2.30;1.20;;;19.50;11.30;;;;;;5068547;28;34367;-79
2022/09/20 12:19:37;;;;;;;1.20;1.10;;;19.50;12.00;;;;;;5072601;28;34656;-81
2022/09/20 12:22:27;;;;;;;5.00;1.15;;;19.50;9.30;;;;;;5087782;28;34148;-77
2022/09/20 12:25:28;;;;;;;1.83;1.10;;;19.40;7.60;;;;;;5099485;28;34092;-79
2022/09/20 12:27:56;;;;;;;1.48;1.27;;;19.30;9.30;;;;;;5094323;28;34152;-78
2022/09/20 12:30:22;;;;;;;1.60;1.27;;;19.20;12.30;;;;;;5096283;28;34249;-81
2022/09/20 12:32:52;;;;;;;1.33;1.10;;;19.10;12.30;;;;;;5077697;28;34175;-83
2022/09/20 12:35:52;;;;;;;2.65;0.82;;;18.80;11.70;;;;;;5101804;28;35856;-79
2022/09/20 12:38:30;;;;;;;3.50;1.05;;;18.60;9.60;;;;;;5073025;28;34342;-82
2022/09/20 12:41:03;;;;;;;2.33;0.90;;;18.30;11.40;;;;;;5066987;28;34457;-76
2022/09/20 12:43:32;;;;;;;4.30;1.10;;;18.00;12.30;;;;;;5078552;28;34413;-76
2022/09/20 12:45:58;;;;;;;2.47;1.10;;;17.80;13.20;;;;;;5074093;28;36649;-76
2022/09/20 12:48:24;;;;;;;3.35;1.20;;;17.60;13.50;;;;;;5105632;28;34128;-76
2022/09/20 12:54:08;;;;;;;1.15;0.98;;;17.20;14.60;;;;;;5105002;28;34151;-77
2022/09/20 12:56:37;;;;;;;0.95;0.90;;;17.00;14.80;;;;;;5088363;28;35658;-76
2022/09/20 12:59:17;;;;;;;1.95;1.08;;;17.00;15.10;;;;;;5105026;28;34091;-76
2022/09/20 13:01:44;;;;;;;1.77;1.13;;;17.00;15.50;;;;;;5106227;28;34182;-76
2022/09/20 13:04:41;;;;;;;0.75;0.75;;;17.00;15.60;;;;;;5106397;27;34284;-76
2022/09/20 13:07:37;;;;;;;1.35;0.98;;;17.00;15.00;;;;;;5105021;28;35794;-75
2022/09/20 13:10:17;;;;;;;2.30;0.93;;;17.00;16.50;;;;;;5084458;28;34186;-76
2022/09/20 13:12:44;;;;;;;2.70;1.00;;;17.10;16.00;;;;;;5084352;28;34225;-76
2022/09/20 13:15:17;;;;;;;0.77;0.77;;;17.20;16.20;;;;;;5091395;27;34142;-76
2022/09/20 13:17:46;;;;;;;1.63;0.93;;;17.20;15.40;;;;;;5108456;27;35549;-76
2022/09/20 13:20:24;;;;;;;0.90;0.90;;;17.30;15.30;;;;;;5126785;27;34071;-75
2022/09/20 13:22:52;;;;;;;1.00;0.70;;;17.20;14.50;;;;;;5089361;27;34142;-76
2022/09/20 13:25:21;;;;;;;3.05;1.00;;;17.20;15.30;;;;;;5108746;27;34434;-76
2022/09/20 13:28:08;;;;;;;2.67;1.00;;;17.10;15.20;;;;;;5108924;27;34455;-76
2022/09/20 13:30:35;;;;;;;0.80;0.80;;;17.10;15.80;;;;;;5108363;27;34039;-76
2022/09/20 13:33:21;;;;;;;0.80;0.80;;;17.10;15.40;;;;;;5108011;27;34240;-76
2022/09/20 13:35:51;;;;;;;0.90;0.90;;;17.10;15.70;;;;;;5107775;27;34214;-76
2022/09/20 13:38:21;;;;;;;4.90;0.75;;;17.10;15.90;;;;;;5108157;27;35485;-76
2022/09/20 13:40:48;;;;;;;0.90;0.90;;;17.10;15.50;;;;;;5091889;27;34235;-76
2022/09/20 13:43:27;;;;;;;1.92;1.00;;;17.20;15.70;;;;;;5107975;27;34405;-76
2022/09/20 13:45:57;;;;;;;2.13;1.40;;;17.20;16.70;;;;;;5108470;27;34106;-76
2022/09/20 13:48:26;;;;;;;2.67;1.00;;;17.30;15.90;;;;;;5091519;27;34374;-76
2022/09/20 13:50:53;;;;;;;3.95;0.90;;;17.30;15.90;;;;;;5107904;27;34018;-76
2022/09/20 13:53:22;;;;;;;1.42;1.10;;;17.40;16.10;;;;;;5090413;27;34088;-76
2022/09/20 13:55:48;;;;;;;1.80;0.80;;;17.30;16.10;;;;;;5090206;27;34546;-76
2022/09/20 13:58:20;;;;;;;1.40;0.90;;;17.30;16.50;;;;;;5125741;27;34295;-76
2022/09/20 14:00:50;;;;;;;0.80;0.80;;;17.30;16.30;;;;;;5089981;27;34207;-76
2022/09/20 14:03:19;;;;;;;1.95;0.85;;;17.20;16.40;;;;;;5107121;27;34274;-76
2022/09/20 14:05:48;;;;;;;2.10;1.08;;;17.20;16.50;;;;;;5125521;27;34038;-77